AST weather

Aerofumigaciones Nayarit Airstrip
Mexicali, Baja California, Mexico

Public forecast

Using degrees Celsius for public forecast. Weather courtesy of forecast.io.

METAR (pilot weather report)

Closest report is General Rodolfo Sánchez Taboada International Airport, 19.1 nm (35.3 km) N. Retrieved 2019/08/20 14:45 UTC (16 minutes ago):

MMML 201445Z 35009KT 10SM SKC 30/10 A2980 RMK SLP091 5//// 960

TAF (pilot weather forecast)

Forecast is more than 6 hours old.

Closest forecast is General Rodolfo Sánchez Taboada International Airport, 19.1 nm (35.3 km) N. Retrieved 2019/08/20 06:26 UTC (9 hours ago):

TAF MMML 200521Z 2006/2106 21004KT P6SM SKC FM201800 30008KT P6SM SKC BECMG 2104/2106 29005KT